Detall de PIREP

Printer-friendly versionPDF version

[2011/05/15 10:37:00]
Flight IATA:CT3112
Pilot Number:026
Company ICAO:CAT
Aircraft Type:DC85/A
PAX:132
Departing Airport: LEBL
Destination Airport: LFMP
Alternate Airport:LFBO
Online: VATSIM
Route:DALIN A67 BGR/N0300F180 A27 KANIG
Flight Level:F180
No Slew and time accel
No pause
Crash detect
Detect pilot in Cockpit between each 30 and 45 minutes
10:37 Zero fuel Weight: 177934 Lbs, Fuel Weight: 18000 Lbs
10:37 VATSIM:LEBL 151030Z 21013KT 9999 FEW020 19/12 Q1023 NOSIG
10:37 VATSIM:LFMP 151000Z 31029G41KT 9999 FEW030 19/04 Q1023 NOSIG
10:37 VOICE CATALONIAN / INTERHUB ROUTE CT3112
10:41 Parking Brakes off
10:58 Take-off
10:58 Take off Weight: 194530 Lbs
10:58 Wind: 214º @ 013 Knots Heading: 243º
10:58 POS N41º 17´ 00´´ E002º 04´ 42´´
10:58 Gear Up: 190 Knots
10:58 Flaps:2 at 190 Knots
10:59 Flaps:1 at 198 Knots
11:01 Flaps:0 at 254 Knots
11:12 TOC
11:12 Fuel Weight: 12871 Lb
11:13 Wind:234º@019 Knots Heading: 016º Ground Speed: 438 Knots Altitude 18480 ft
11:20 TOD
11:20 Fuel Weight: 10986 Lb
11:28 Wind:309º@052 Knots Heading: 335º Ground Speed: 229 Knots Altitude 8845 ft
11:32 Flaps:1 at 240 Knots
11:37 Flaps:2 at 180 Knots
11:37 Gear Down: 187 Knots
11:38 Flaps:3 at 148 Knots
11:39 Flaps:4 at 148 Knots
11:39 Flaps:5 at 144 Knots
11:40 TouchDown:Rate -84 ft/min Speed: 116 Knots
11:40 VATSIM:LFMP 151100Z 31023G34KT 9999 FEW030 19/04 Q1024 NOSIG
11:40 Land
11:40 Wind:312º@023 Knots
11:40 Heading: 327º
11:40 Flight Duration: 00:42
11:40 Landing Weight: 186982 Lbs
11:40 POS N42º 44´ 43´´ E002º 52´ 08´´
11:46 Parking brakes on
11:46 Block to Block Duration: 01:05
11:46 Final Fuel: 8573 Lbls
11:46 Spent Fuel: 9426 Lbls
11:46 Flight Length: 215 NM
11:46 TOD Land Length: 83 NM

Exportar CSV

Powered by Drupal - Modified by Danger4k